Аэропорт: Пашковский. Краснодар

ICAO: URKK

METAR:
2022-01-28 09:00:00
URKK 280900Z 20002MPS CAVOK M02/M05 Q1020 R23L/290060 NOSIG RMK QFE762
METAR:
2022-01-28 07:58:00
TAF URKK 280758Z 2809/2909 20003G08MPS CAVOK FM281500 22008G14MPS 9999 SCT020CB TEMPO 2815/2821 18008G14MPS 6000 -SHRASN SCT007 BKN016CB TEMPO 2903/2909 22012G18MPS 3100 -SHRA SCT011 BKN020CB